createdAt,value
2022-12-31T00:02:07.118Z,10.08
2022-12-31T00:04:34.731Z,10.10
2022-12-31T00:07:01.430Z,10.12
2022-12-31T00:09:28.106Z,10.12
2022-12-31T00:11:54.799Z,10.13
2022-12-31T00:14:21.448Z,10.15
2022-12-31T00:16:48.140Z,10.14
2022-12-31T00:19:14.837Z,10.15
2022-12-31T00:21:44.026Z,10.16
2022-12-31T00:24:12.446Z,10.17
2022-12-31T00:26:39.180Z,10.17
2022-12-31T00:29:06.381Z,10.18
2022-12-31T00:31:36.559Z,10.19
2022-12-31T00:34:03.630Z,10.21
2022-12-31T00:36:36.450Z,10.21
2022-12-31T00:39:05.762Z,10.22
2022-12-31T00:41:32.676Z,10.22
2022-12-31T00:44:00.273Z,10.23
2022-12-31T00:46:27.513Z,10.25
2022-12-31T00:48:54.222Z,10.25
2022-12-31T00:51:24.469Z,10.28
2022-12-31T00:53:51.220Z,10.28
2022-12-31T00:56:21.410Z,10.29
2022-12-31T00:58:48.550Z,10.30
2022-12-31T01:01:18.639Z,10.28
2022-12-31T01:03:47.004Z,10.33
2022-12-31T01:06:13.903Z,10.33
2022-12-31T01:08:40.809Z,10.34
2022-12-31T01:11:19.623Z,10.34
2022-12-31T01:14:02.018Z,10.36
2022-12-31T01:16:36.507Z,10.37
2022-12-31T01:19:06.505Z,10.38
2022-12-31T01:21:34.756Z,10.37
2022-12-31T01:24:01.614Z,10.40
2022-12-31T01:26:28.986Z,10.42
2022-12-31T01:28:55.907Z,10.41
2022-12-31T01:31:24.262Z,10.44
2022-12-31T01:33:52.329Z,10.46
2022-12-31T01:36:25.904Z,10.46
2022-12-31T01:38:55.260Z,10.47
2022-12-31T01:41:25.099Z,10.49
2022-12-31T01:44:11.093Z,10.50
2022-12-31T01:46:56.372Z,10.49
2022-12-31T01:49:55.765Z,10.50
2022-12-31T01:52:28.618Z,10.52
2022-12-31T01:55:08.291Z,10.53
2022-12-31T01:57:36.439Z,10.55
2022-12-31T02:00:04.950Z,10.57
2022-12-31T02:02:34.687Z,10.57
2022-12-31T02:05:05.655Z,10.59
2022-12-31T02:07:32.497Z,10.61
2022-12-31T02:10:00.086Z,10.61
2022-12-31T02:12:26.920Z,10.63
2022-12-31T02:14:54.667Z,10.65
2022-12-31T02:17:43.829Z,10.64
2022-12-31T02:20:26.497Z,10.65
2022-12-31T02:23:26.975Z,10.66
2022-12-31T02:26:11.381Z,10.67
2022-12-31T02:29:07.251Z,10.68
2022-12-31T02:31:50.141Z,10.68
2022-12-31T02:34:55.778Z,10.68
2022-12-31T02:37:25.037Z,10.71
2022-12-31T02:39:51.974Z,10.73
2022-12-31T02:42:18.832Z,10.74
2022-12-31T02:44:45.439Z,10.76
2022-12-31T02:47:22.562Z,10.76
2022-12-31T02:50:21.560Z,10.76
2022-12-31T02:53:06.568Z,10.77
2022-12-31T02:55:45.550Z,10.80
2022-12-31T02:58:55.603Z,10.80
2022-12-31T03:01:49.172Z,10.81
2022-12-31T03:04:32.813Z,10.81
2022-12-31T03:07:03.756Z,10.82
2022-12-31T03:09:30.244Z,10.83
2022-12-31T03:12:15.381Z,10.81
2022-12-31T03:14:41.910Z,10.85
2022-12-31T03:17:08.374Z,10.86
2022-12-31T03:19:53.631Z,10.88
2022-12-31T03:22:29.139Z,10.88
2022-12-31T03:25:22.299Z,10.90
2022-12-31T03:27:49.856Z,10.87
2022-12-31T03:30:18.568Z,10.90
2022-12-31T03:32:46.072Z,10.92
2022-12-31T03:35:14.480Z,10.91
2022-12-31T03:37:41.296Z,10.93
2022-12-31T03:40:11.517Z,10.95
2022-12-31T03:42:37.954Z,10.94
2022-12-31T03:45:05.125Z,10.98
2022-12-31T03:47:31.647Z,11.00
2022-12-31T03:49:58.112Z,11.00
2022-12-31T03:52:24.538Z,11.01
2022-12-31T03:54:50.938Z,11.02
2022-12-31T03:57:17.381Z,11.03
2022-12-31T03:59:44.212Z,10.98
2022-12-31T04:02:10.931Z,11.06
2022-12-31T04:04:37.709Z,11.07
2022-12-31T04:07:04.151Z,11.06
2022-12-31T04:09:30.541Z,11.10
2022-12-31T04:11:57.050Z,11.10
2022-12-31T04:14:23.497Z,11.12
2022-12-31T04:16:50.057Z,11.11
2022-12-31T04:19:16.488Z,11.13
2022-12-31T04:21:43.072Z,11.11
2022-12-31T04:24:09.855Z,11.16
2022-12-31T04:26:37.177Z,11.15
2022-12-31T04:29:03.686Z,11.17
2022-12-31T04:31:30.704Z,11.16
2022-12-31T04:33:57.152Z,11.19
2022-12-31T04:36:23.736Z,11.20
2022-12-31T04:38:50.169Z,11.20
2022-12-31T04:41:20.798Z,11.21
2022-12-31T04:43:58.135Z,11.21
2022-12-31T04:46:27.564Z,11.18
2022-12-31T04:48:54.587Z,11.23
2022-12-31T04:51:22.154Z,11.23
2022-12-31T04:53:49.259Z,11.25
2022-12-31T04:56:16.894Z,11.25
2022-12-31T04:58:44.216Z,11.27
2022-12-31T05:01:11.607Z,11.27
2022-12-31T05:03:38.371Z,11.28
2022-12-31T05:06:15.244Z,11.25
2022-12-31T05:08:42.324Z,11.28
2022-12-31T05:11:09.632Z,11.29
2022-12-31T05:13:36.627Z,11.29
2022-12-31T05:16:04.081Z,11.28
2022-12-31T05:18:31.536Z,11.31
2022-12-31T05:20:57.979Z,11.30
2022-12-31T05:23:24.830Z,11.34
2022-12-31T05:25:51.629Z,11.33
2022-12-31T05:28:18.381Z,11.32
2022-12-31T05:30:47.989Z,11.34
2022-12-31T05:37:48.715Z,11.29
2022-12-31T05:40:15.162Z,11.30
2022-12-31T05:42:41.610Z,11.36
2022-12-31T05:45:08.827Z,11.34
2022-12-31T05:47:35.254Z,11.37
2022-12-31T05:50:01.708Z,11.39
2022-12-31T05:52:28.218Z,11.39
2022-12-31T05:54:54.624Z,11.37
2022-12-31T05:57:21.065Z,11.41
2022-12-31T05:59:47.533Z,11.41
2022-12-31T06:02:14.033Z,11.41
2022-12-31T06:04:40.557Z,11.41
2022-12-31T06:07:07.020Z,11.41
2022-12-31T06:09:33.435Z,11.43
2022-12-31T06:11:59.872Z,11.42
2022-12-31T06:14:26.382Z,11.43
2022-12-31T06:16:52.887Z,11.42
2022-12-31T06:19:19.329Z,11.41
2022-12-31T06:21:45.757Z,11.44
2022-12-31T06:24:12.408Z,11.43
2022-12-31T06:26:38.904Z,11.44
2022-12-31T06:29:05.505Z,11.45
2022-12-31T06:31:32.260Z,11.44
2022-12-31T06:33:59.107Z,11.42
2022-12-31T06:36:26.995Z,11.44
2022-12-31T06:38:53.815Z,11.44
2022-12-31T06:41:20.517Z,11.46
2022-12-31T06:43:47.239Z,11.43
2022-12-31T06:46:16.516Z,11.46
2022-12-31T06:48:44.779Z,11.45
2022-12-31T06:51:17.852Z,11.46
2022-12-31T06:53:45.773Z,11.45
2022-12-31T06:56:21.366Z,11.45
2022-12-31T06:58:48.782Z,11.47
2022-12-31T07:01:34.614Z,11.45
2022-12-31T07:04:21.112Z,11.45
2022-12-31T07:06:59.778Z,11.46
2022-12-31T07:09:29.408Z,11.45
2022-12-31T07:12:13.831Z,11.45
2022-12-31T07:14:43.866Z,11.39
2022-12-31T07:17:47.439Z,11.41
2022-12-31T07:20:17.370Z,11.42
2022-12-31T07:22:45.216Z,11.43
2022-12-31T07:25:16.642Z,11.42
2022-12-31T07:28:14.241Z,11.40
2022-12-31T07:31:05.610Z,11.43
2022-12-31T07:33:42.497Z,11.43
2022-12-31T07:36:36.210Z,11.40
2022-12-31T07:39:12.027Z,11.43
2022-12-31T07:41:52.379Z,11.39
2022-12-31T07:44:28.546Z,11.41
2022-12-31T07:46:57.441Z,11.45
2022-12-31T07:49:25.979Z,11.45
2022-12-31T07:51:53.082Z,11.46
2022-12-31T07:54:20.147Z,11.46
2022-12-31T07:56:49.148Z,11.47
2022-12-31T07:59:30.543Z,11.46
2022-12-31T08:02:13.719Z,11.44
2022-12-31T08:04:50.981Z,11.48
2022-12-31T08:07:42.140Z,11.43
2022-12-31T08:10:33.067Z,11.45
2022-12-31T08:13:03.543Z,11.47
2022-12-31T08:15:30.920Z,11.47
2022-12-31T08:17:57.825Z,11.47
2022-12-31T08:20:26.847Z,11.47
2022-12-31T08:23:25.756Z,11.46
2022-12-31T08:26:04.805Z,11.47
2022-12-31T08:28:53.230Z,11.44
2022-12-31T08:31:26.022Z,11.47
2022-12-31T08:34:05.558Z,11.47
2022-12-31T08:36:32.509Z,11.48
2022-12-31T08:39:16.943Z,11.47
2022-12-31T08:41:45.079Z,11.44
2022-12-31T08:44:24.667Z,11.46
2022-12-31T08:46:59.722Z,11.44
2022-12-31T08:49:28.406Z,11.44
2022-12-31T08:51:55.136Z,11.47
2022-12-31T08:54:21.755Z,11.50
2022-12-31T08:56:56.305Z,11.52
2022-12-31T08:59:33.792Z,11.49
2022-12-31T09:02:18.883Z,11.50
2022-12-31T09:05:03.542Z,11.52
2022-12-31T09:07:41.642Z,11.50
2022-12-31T09:10:20.760Z,11.54
2022-12-31T09:13:15.237Z,11.53
2022-12-31T09:15:47.435Z,11.56
2022-12-31T09:18:14.871Z,11.56
2022-12-31T09:20:43.508Z,11.54
2022-12-31T09:23:12.227Z,11.56
2022-12-31T09:26:13.366Z,11.57
2022-12-31T09:28:45.883Z,11.59
2022-12-31T09:31:32.618Z,11.59
2022-12-31T09:34:11.383Z,11.60
2022-12-31T09:36:44.062Z,11.60
2022-12-31T09:39:35.782Z,11.63
2022-12-31T09:42:20.504Z,11.62
2022-12-31T09:45:20.297Z,11.61
2022-12-31T09:48:19.244Z,11.65
2022-12-31T09:51:20.390Z,11.64
2022-12-31T09:54:20.090Z,11.64
2022-12-31T09:57:03.385Z,11.66
2022-12-31T09:59:46.227Z,11.66
2022-12-31T10:02:30.858Z,11.70
2022-12-31T10:05:09.645Z,11.70
2022-12-31T10:08:33.229Z,11.71
2022-12-31T10:11:25.643Z,11.72
2022-12-31T10:14:19.897Z,11.72
2022-12-31T10:17:06.874Z,11.73
2022-12-31T10:19:47.143Z,11.77
2022-12-31T10:22:32.295Z,11.77
2022-12-31T10:25:38.476Z,11.79
2022-12-31T10:28:21.837Z,11.79
2022-12-31T10:31:06.935Z,11.79
2022-12-31T10:33:42.542Z,11.82
2022-12-31T10:36:20.764Z,11.81
2022-12-31T10:38:55.190Z,11.84
2022-12-31T10:42:04.792Z,11.83
2022-12-31T10:44:36.930Z,11.88
2022-12-31T10:47:12.444Z,11.89
2022-12-31T10:50:15.942Z,11.89
2022-12-31T10:53:18.046Z,11.91
2022-12-31T10:56:22.568Z,11.90
2022-12-31T10:59:16.589Z,11.94
2022-12-31T11:02:16.846Z,11.95
2022-12-31T11:05:11.820Z,11.99
2022-12-31T11:07:51.665Z,11.96
2022-12-31T11:11:02.711Z,11.98
2022-12-31T11:13:59.728Z,12.02
2022-12-31T11:16:44.665Z,12.08
2022-12-31T11:19:21.722Z,12.08
2022-12-31T11:22:06.837Z,12.10
2022-12-31T11:24:42.261Z,12.13
2022-12-31T11:27:38.842Z,12.16
2022-12-31T11:30:48.797Z,12.17
2022-12-31T11:33:31.316Z,12.19
2022-12-31T11:36:35.391Z,12.22
2022-12-31T11:39:31.288Z,12.26
2022-12-31T11:42:15.622Z,12.27
2022-12-31T11:45:04.208Z,12.26
2022-12-31T11:51:02.319Z,12.34
2022-12-31T11:53:51.736Z,12.37
2022-12-31T11:56:21.138Z,12.39
2022-12-31T11:58:51.122Z,12.44
2022-12-31T12:01:51.444Z,12.44
2022-12-31T12:04:18.218Z,12.48
2022-12-31T12:06:46.019Z,12.53
2022-12-31T12:09:28.939Z,12.53
2022-12-31T12:12:02.338Z,12.58
2022-12-31T12:14:40.967Z,12.60
2022-12-31T12:17:12.408Z,12.64
2022-12-31T12:19:47.641Z,12.65
2022-12-31T12:22:21.568Z,12.65
2022-12-31T12:24:55.600Z,12.65
2022-12-31T12:27:26.480Z,12.69
2022-12-31T12:29:52.933Z,12.71
2022-12-31T12:32:24.995Z,12.74
2022-12-31T12:34:52.353Z,12.75
2022-12-31T12:37:24.827Z,12.78
2022-12-31T12:40:21.630Z,12.79
2022-12-31T12:42:49.538Z,12.81
2022-12-31T12:45:19.031Z,12.81
2022-12-31T12:47:48.215Z,12.83
2022-12-31T12:50:21.809Z,12.80
2022-12-31T12:52:55.108Z,12.86
2022-12-31T12:55:46.303Z,12.87
2022-12-31T12:58:32.262Z,12.88
2022-12-31T13:01:24.352Z,12.87
2022-12-31T13:04:35.456Z,12.88
2022-12-31T13:07:17.463Z,12.92
2022-12-31T13:10:06.873Z,12.94
2022-12-31T13:16:13.318Z,12.94
2022-12-31T13:19:19.293Z,12.98
2022-12-31T13:21:56.577Z,13.02
2022-12-31T13:24:37.987Z,13.03
2022-12-31T13:27:29.452Z,13.03
2022-12-31T13:30:01.496Z,13.02
2022-12-31T13:32:42.381Z,13.07
2022-12-31T13:35:23.488Z,13.08
2022-12-31T13:37:53.092Z,13.10
2022-12-31T13:40:34.844Z,13.12
2022-12-31T13:43:08.373Z,13.14
2022-12-31T13:45:41.748Z,13.16
2022-12-31T13:48:22.472Z,13.13
2022-12-31T13:51:15.874Z,13.15
2022-12-31T13:53:54.785Z,13.16
2022-12-31T13:56:27.189Z,13.20
2022-12-31T13:59:01.439Z,13.21
2022-12-31T14:01:43.014Z,13.19
2022-12-31T14:04:18.289Z,13.24
2022-12-31T14:06:58.468Z,13.20
2022-12-31T14:09:28.153Z,13.26
2022-12-31T14:12:22.355Z,13.28
2022-12-31T14:15:04.531Z,13.30
2022-12-31T14:17:42.488Z,13.31
2022-12-31T14:20:29.107Z,13.29
2022-12-31T14:23:18.117Z,13.34
2022-12-31T14:25:52.476Z,13.36
2022-12-31T14:28:25.374Z,13.39
2022-12-31T14:30:58.826Z,13.38
2022-12-31T14:33:44.614Z,13.38
2022-12-31T14:36:14.027Z,13.42
2022-12-31T14:38:58.858Z,13.41
2022-12-31T14:41:43.169Z,13.44
2022-12-31T14:44:43.546Z,13.44
2022-12-31T14:47:25.205Z,13.46
2022-12-31T14:49:57.660Z,13.47
2022-12-31T14:52:54.781Z,13.48
2022-12-31T14:55:35.583Z,13.47
2022-12-31T15:01:19.841Z,13.51
2022-12-31T15:03:46.645Z,13.53
2022-12-31T15:06:47.940Z,13.52
2022-12-31T15:09:50.406Z,13.52
2022-12-31T15:12:29.182Z,13.55
2022-12-31T15:15:25.056Z,13.56
2022-12-31T15:18:30.224Z,13.55
2022-12-31T15:21:19.783Z,13.53
2022-12-31T15:23:46.712Z,13.58
2022-12-31T15:26:25.078Z,13.59
2022-12-31T15:29:01.950Z,13.61
2022-12-31T15:31:28.925Z,13.62
2022-12-31T15:34:00.077Z,13.65
2022-12-31T15:36:35.639Z,13.61
2022-12-31T15:39:11.328Z,13.68
2022-12-31T15:44:48.343Z,13.71
2022-12-31T15:47:29.444Z,13.64
2022-12-31T15:49:59.197Z,13.71
2022-12-31T15:52:35.169Z,13.74
2022-12-31T15:55:05.891Z,13.71
2022-12-31T15:57:51.450Z,13.74
2022-12-31T16:00:21.031Z,13.75
2022-12-31T16:02:50.970Z,13.74
2022-12-31T16:05:19.411Z,13.75
2022-12-31T16:07:47.145Z,13.81
2022-12-31T16:10:22.699Z,13.81
2022-12-31T16:12:49.640Z,13.83
2022-12-31T16:15:27.027Z,13.83
2022-12-31T16:18:03.024Z,13.82
2022-12-31T16:20:31.489Z,13.83
2022-12-31T16:23:02.228Z,13.88
2022-12-31T16:25:32.262Z,13.89
2022-12-31T16:28:02.004Z,13.88
2022-12-31T16:30:30.706Z,13.91
2022-12-31T16:33:06.149Z,13.88
2022-12-31T16:35:37.009Z,13.92
2022-12-31T16:38:30.697Z,13.89
2022-12-31T16:41:03.150Z,13.94
2022-12-31T16:43:41.924Z,13.92
2022-12-31T16:46:13.927Z,13.95
2022-12-31T16:48:41.200Z,13.96
2022-12-31T16:51:17.872Z,13.96
2022-12-31T16:53:44.900Z,13.97
2022-12-31T16:56:20.672Z,13.94
2022-12-31T16:58:47.199Z,13.96
2022-12-31T17:01:29.908Z,13.96
2022-12-31T17:04:01.311Z,13.98
2022-12-31T17:06:28.425Z,13.98
2022-12-31T17:08:59.446Z,14.01
2022-12-31T17:11:39.058Z,14.01
2022-12-31T17:14:05.442Z,14.01
2022-12-31T17:16:33.872Z,14.01
2022-12-31T17:19:00.421Z,14.02
2022-12-31T17:21:29.958Z,14.04
2022-12-31T17:24:05.823Z,14.02
2022-12-31T17:26:34.656Z,14.03
2022-12-31T17:29:02.716Z,14.05
2022-12-31T17:31:38.729Z,14.06
2022-12-31T17:34:14.271Z,14.06
2022-12-31T17:36:54.184Z,14.04
2022-12-31T17:39:22.735Z,14.06
2022-12-31T17:41:51.534Z,13.93
2022-12-31T17:44:25.682Z,14.06
2022-12-31T17:46:52.627Z,14.00
2022-12-31T17:49:27.108Z,14.02
2022-12-31T17:51:53.605Z,14.05
2022-12-31T17:54:20.113Z,14.08
2022-12-31T17:56:47.212Z,14.07
2022-12-31T17:59:29.521Z,14.04
2022-12-31T18:02:02.131Z,14.07
2022-12-31T18:04:28.770Z,14.06
2022-12-31T18:06:55.518Z,14.08
2022-12-31T18:09:22.016Z,14.10
2022-12-31T18:11:48.473Z,14.10
2022-12-31T18:14:16.337Z,14.09
2022-12-31T18:16:49.300Z,14.06
2022-12-31T18:19:45.863Z,14.11
2022-12-31T18:22:02.871Z,14.01
2022-12-31T18:24:29.520Z,14.04
2022-12-31T18:26:55.919Z,14.09
2022-12-31T18:29:22.471Z,14.11
2022-12-31T18:31:50.078Z,14.08
2022-12-31T18:34:17.972Z,14.09
2022-12-31T18:36:44.549Z,14.10
2022-12-31T18:39:11.167Z,14.11
2022-12-31T18:41:48.910Z,14.10
2022-12-31T18:44:16.155Z,14.08
2022-12-31T18:46:42.977Z,14.08
2022-12-31T18:49:09.740Z,14.08
2022-12-31T18:51:36.260Z,14.09
2022-12-31T18:54:03.517Z,14.11
2022-12-31T18:56:30.102Z,14.08
2022-12-31T18:58:56.670Z,14.07
2022-12-31T19:01:35.581Z,14.11
2022-12-31T19:04:22.851Z,14.08
2022-12-31T19:06:53.354Z,14.11
2022-12-31T19:09:44.258Z,14.08
2022-12-31T19:12:06.387Z,14.09
2022-12-31T19:14:32.813Z,14.10
2022-12-31T19:19:25.130Z,14.06
2022-12-31T19:21:51.664Z,14.08
2022-12-31T19:24:24.407Z,14.10
2022-12-31T19:26:50.850Z,14.09
2022-12-31T19:29:23.517Z,14.11
2022-12-31T19:31:50.591Z,14.07
2022-12-31T19:34:17.227Z,14.08
2022-12-31T19:36:44.198Z,14.05
2022-12-31T19:39:16.854Z,14.11
2022-12-31T19:41:43.739Z,14.07
2022-12-31T19:44:18.079Z,14.11
2022-12-31T19:46:46.258Z,14.11
2022-12-31T19:49:13.982Z,14.06
2022-12-31T19:51:41.203Z,14.08
2022-12-31T19:54:07.981Z,14.08
2022-12-31T19:56:34.584Z,14.11
2022-12-31T19:59:05.763Z,14.11
2022-12-31T20:01:32.345Z,14.12
2022-12-31T20:03:58.866Z,14.02
2022-12-31T20:06:25.892Z,14.12
2022-12-31T20:08:52.357Z,14.13
2022-12-31T20:11:21.684Z,14.09
2022-12-31T20:13:49.458Z,14.11
2022-12-31T20:16:18.725Z,14.12
2022-12-31T20:18:47.066Z,14.10
2022-12-31T20:21:20.000Z,14.10
2022-12-31T20:23:48.062Z,14.13
2022-12-31T20:26:14.909Z,14.08
2022-12-31T20:28:41.496Z,14.09
2022-12-31T20:31:10.105Z,14.11
2022-12-31T20:33:37.225Z,14.10
2022-12-31T20:36:05.427Z,14.02
2022-12-31T20:38:32.119Z,14.09
2022-12-31T20:41:05.866Z,14.12
2022-12-31T20:43:34.135Z,14.11
2022-12-31T20:46:15.787Z,14.07
2022-12-31T20:48:44.363Z,14.07
2022-12-31T20:51:11.891Z,14.10
2022-12-31T20:53:38.590Z,14.10
2022-12-31T20:56:06.369Z,14.11
2022-12-31T20:58:33.450Z,14.07
2022-12-31T21:01:00.204Z,14.11
2022-12-31T21:04:03.049Z,14.03
2022-12-31T21:06:14.233Z,14.11
2022-12-31T21:08:41.372Z,14.11
2022-12-31T21:11:27.065Z,14.09
2022-12-31T21:13:54.200Z,14.04
2022-12-31T21:16:20.621Z,14.08
2022-12-31T21:18:47.180Z,14.11
2022-12-31T21:21:13.829Z,14.10
2022-12-31T21:23:40.493Z,14.01
2022-12-31T21:26:07.157Z,14.11
2022-12-31T21:28:33.925Z,14.00
2022-12-31T21:31:02.667Z,14.09
2022-12-31T21:33:29.259Z,14.11
2022-12-31T21:35:58.626Z,14.10
2022-12-31T21:38:29.147Z,14.09
2022-12-31T21:40:55.666Z,14.04
2022-12-31T21:43:22.139Z,14.11
2022-12-31T21:45:59.945Z,14.10
2022-12-31T21:48:26.435Z,13.98
2022-12-31T21:50:55.197Z,14.10
2022-12-31T21:53:31.913Z,14.12
2022-12-31T21:56:08.509Z,14.05
2022-12-31T21:58:43.236Z,14.11
2022-12-31T22:01:35.444Z,14.08
2022-12-31T22:04:02.001Z,14.06
2022-12-31T22:06:28.748Z,14.06
2022-12-31T22:08:56.829Z,14.11
2022-12-31T22:11:26.443Z,14.07
2022-12-31T22:13:53.814Z,14.11
2022-12-31T22:16:21.156Z,14.11
2022-12-31T22:18:48.403Z,14.11
2022-12-31T22:21:20.056Z,14.07
2022-12-31T22:23:49.539Z,14.11
2022-12-31T22:26:17.739Z,14.10
2022-12-31T22:28:45.391Z,14.11
2022-12-31T22:31:18.171Z,14.07
2022-12-31T22:33:44.888Z,14.10
2022-12-31T22:36:17.270Z,14.07
2022-12-31T22:38:44.731Z,14.11
2022-12-31T22:41:13.755Z,14.11
2022-12-31T22:43:43.045Z,14.10
2022-12-31T22:46:18.930Z,14.10
2022-12-31T22:48:46.106Z,14.10
2022-12-31T22:51:13.840Z,14.10
2022-12-31T22:53:41.442Z,14.11
2022-12-31T22:56:09.235Z,14.10
2022-12-31T22:58:36.428Z,14.11
2022-12-31T23:01:07.873Z,14.10
2022-12-31T23:03:34.476Z,14.11
2022-12-31T23:06:00.957Z,14.05
2022-12-31T23:08:27.598Z,14.12
2022-12-31T23:11:00.705Z,14.11
2022-12-31T23:13:50.992Z,14.08
2022-12-31T23:16:37.863Z,14.10
2022-12-31T23:19:23.873Z,14.10
2022-12-31T23:22:08.791Z,14.08
2022-12-31T23:24:35.565Z,14.07
2022-12-31T23:27:02.058Z,14.04
2022-12-31T23:29:28.484Z,14.10
2022-12-31T23:31:55.145Z,14.09
2022-12-31T23:34:21.695Z,14.10
2022-12-31T23:36:48.192Z,14.13
2022-12-31T23:39:14.983Z,14.07
2022-12-31T23:41:41.385Z,14.08
2022-12-31T23:44:07.918Z,14.11
2022-12-31T23:46:34.440Z,14.12
2022-12-31T23:49:01.009Z,14.11
2022-12-31T23:51:27.545Z,14.07
2022-12-31T23:53:53.972Z,14.07
2022-12-31T23:56:23.671Z,14.14
2022-12-31T23:58:58.012Z,14.13
